sensor_id;sensor_type;location;lat;lon;timestamp;P1;durP1;ratioP1;P2;durP2;ratioP2
1977;SDS011;989;53.016;8.346;2023-07-29T00:02:17;23.93;;;14.30;;
1977;SDS011;989;53.016;8.346;2023-07-29T00:04:43;24.50;;;14.60;;
1977;SDS011;989;53.016;8.346;2023-07-29T00:07:09;32.00;;;16.93;;
1977;SDS011;989;53.016;8.346;2023-07-29T00:09:35;33.80;;;17.33;;
1977;SDS011;989;53.016;8.346;2023-07-29T00:12:03;30.50;;;16.57;;
1977;SDS011;989;53.016;8.346;2023-07-29T00:14:29;31.30;;;16.80;;
1977;SDS011;989;53.016;8.346;2023-07-29T00:16:55;31.67;;;14.77;;
1977;SDS011;989;53.016;8.346;2023-07-29T00:19:21;27.87;;;14.63;;
1977;SDS011;989;53.016;8.346;2023-07-29T00:21:48;26.97;;;16.27;;
1977;SDS011;989;53.016;8.346;2023-07-29T00:24:14;22.43;;;13.20;;
1977;SDS011;989;53.016;8.346;2023-07-29T00:26:40;20.97;;;13.50;;
1977;SDS011;989;53.016;8.346;2023-07-29T00:29:06;29.27;;;14.10;;
1977;SDS011;989;53.016;8.346;2023-07-29T00:31:32;24.00;;;13.93;;
1977;SDS011;989;53.016;8.346;2023-07-29T00:33:58;22.93;;;13.90;;
1977;SDS011;989;53.016;8.346;2023-07-29T00:36:24;29.53;;;13.97;;
1977;SDS011;989;53.016;8.346;2023-07-29T00:38:50;120.17;;;16.47;;
1977;SDS011;989;53.016;8.346;2023-07-29T00:41:18;116.07;;;17.37;;
1977;SDS011;989;53.016;8.346;2023-07-29T00:43:44;55.10;;;13.43;;
1977;SDS011;989;53.016;8.346;2023-07-29T00:46:10;81.63;;;18.17;;
1977;SDS011;989;53.016;8.346;2023-07-29T00:48:38;46.13;;;18.90;;
1977;SDS011;989;53.016;8.346;2023-07-29T00:51:04;115.37;;;18.60;;
1977;SDS011;989;53.016;8.346;2023-07-29T00:53:31;74.67;;;18.87;;
1977;SDS011;989;53.016;8.346;2023-07-29T00:55:57;110.67;;;18.27;;
1977;SDS011;989;53.016;8.346;2023-07-29T00:58:23;127.47;;;19.80;;
1977;SDS011;989;53.016;8.346;2023-07-29T01:00:49;54.27;;;16.10;;
1977;SDS011;989;53.016;8.346;2023-07-29T01:03:16;44.43;;;16.80;;
1977;SDS011;989;53.016;8.346;2023-07-29T01:05:50;68.20;;;15.30;;
1977;SDS011;989;53.016;8.346;2023-07-29T01:08:21;60.67;;;18.00;;
1977;SDS011;989;53.016;8.346;2023-07-29T01:14:05;45.50;;;15.73;;
1977;SDS011;989;53.016;8.346;2023-07-29T01:16:42;54.30;;;17.97;;
1977;SDS011;989;53.016;8.346;2023-07-29T01:19:21;57.43;;;15.90;;
1977;SDS011;989;53.016;8.346;2023-07-29T01:22:07;89.33;;;18.30;;
1977;SDS011;989;53.016;8.346;2023-07-29T01:24:33;160.43;;;16.97;;
1977;SDS011;989;53.016;8.346;2023-07-29T01:26:59;177.23;;;18.50;;
1977;SDS011;989;53.016;8.346;2023-07-29T01:29:27;161.17;;;21.30;;
1977;SDS011;989;53.016;8.346;2023-07-29T01:31:54;102.33;;;20.50;;
1977;SDS011;989;53.016;8.346;2023-07-29T01:34:24;96.57;;;19.73;;
1977;SDS011;989;53.016;8.346;2023-07-29T01:36:54;55.27;;;18.10;;
1977;SDS011;989;53.016;8.346;2023-07-29T01:39:22;72.40;;;18.70;;
1977;SDS011;989;53.016;8.346;2023-07-29T01:41:49;91.67;;;20.03;;
1977;SDS011;989;53.016;8.346;2023-07-29T01:44:16;53.40;;;19.37;;
1977;SDS011;989;53.016;8.346;2023-07-29T01:46:43;47.83;;;18.27;;
1977;SDS011;989;53.016;8.346;2023-07-29T01:49:10;47.47;;;19.40;;
1977;SDS011;989;53.016;8.346;2023-07-29T01:51:36;62.67;;;18.97;;
1977;SDS011;989;53.016;8.346;2023-07-29T01:54:02;62.87;;;20.30;;
1977;SDS011;989;53.016;8.346;2023-07-29T01:56:28;44.03;;;15.83;;
1977;SDS011;989;53.016;8.346;2023-07-29T01:58:54;52.07;;;17.90;;
1977;SDS011;989;53.016;8.346;2023-07-29T02:01:20;47.47;;;19.33;;
1977;SDS011;989;53.016;8.346;2023-07-29T02:03:46;56.90;;;20.47;;
1977;SDS011;989;53.016;8.346;2023-07-29T02:06:18;55.37;;;20.00;;
1977;SDS011;989;53.016;8.346;2023-07-29T02:08:44;60.73;;;21.27;;
1977;SDS011;989;53.016;8.346;2023-07-29T02:11:10;53.90;;;19.93;;
1977;SDS011;989;53.016;8.346;2023-07-29T02:13:36;47.40;;;19.70;;
1977;SDS011;989;53.016;8.346;2023-07-29T02:16:02;72.07;;;20.93;;
1977;SDS011;989;53.016;8.346;2023-07-29T02:18:28;59.60;;;20.50;;
1977;SDS011;989;53.016;8.346;2023-07-29T02:20:54;68.50;;;22.30;;
1977;SDS011;989;53.016;8.346;2023-07-29T02:23:20;56.63;;;20.10;;
1977;SDS011;989;53.016;8.346;2023-07-29T02:25:46;44.93;;;20.90;;
1977;SDS011;989;53.016;8.346;2023-07-29T02:28:12;51.63;;;20.60;;
1977;SDS011;989;53.016;8.346;2023-07-29T02:30:40;53.77;;;21.20;;
1977;SDS011;989;53.016;8.346;2023-07-29T02:33:06;51.83;;;20.77;;
1977;SDS011;989;53.016;8.346;2023-07-29T02:35:32;48.93;;;19.20;;
1977;SDS011;989;53.016;8.346;2023-07-29T02:37:58;65.13;;;22.57;;
1977;SDS011;989;53.016;8.346;2023-07-29T02:40:24;56.70;;;22.27;;
1977;SDS011;989;53.016;8.346;2023-07-29T02:42:51;50.43;;;20.90;;
1977;SDS011;989;53.016;8.346;2023-07-29T02:45:18;54.57;;;20.20;;
1977;SDS011;989;53.016;8.346;2023-07-29T02:47:44;48.30;;;21.27;;
1977;SDS011;989;53.016;8.346;2023-07-29T02:50:10;56.17;;;21.30;;
1977;SDS011;989;53.016;8.346;2023-07-29T02:52:36;55.67;;;20.03;;
1977;SDS011;989;53.016;8.346;2023-07-29T02:55:02;45.43;;;19.17;;
1977;SDS011;989;53.016;8.346;2023-07-29T02:57:28;56.83;;;21.43;;
1977;SDS011;989;53.016;8.346;2023-07-29T02:59:54;50.10;;;20.50;;
1977;SDS011;989;53.016;8.346;2023-07-29T03:02:20;61.20;;;21.40;;
1977;SDS011;989;53.016;8.346;2023-07-29T03:04:47;53.23;;;20.37;;
1977;SDS011;989;53.016;8.346;2023-07-29T03:07:13;51.33;;;21.60;;
1977;SDS011;989;53.016;8.346;2023-07-29T03:09:39;54.80;;;21.23;;
1977;SDS011;989;53.016;8.346;2023-07-29T03:12:07;48.70;;;19.63;;
1977;SDS011;989;53.016;8.346;2023-07-29T03:14:33;67.37;;;21.90;;
1977;SDS011;989;53.016;8.346;2023-07-29T03:17:02;58.20;;;19.73;;
1977;SDS011;989;53.016;8.346;2023-07-29T03:19:29;54.50;;;20.00;;
1977;SDS011;989;53.016;8.346;2023-07-29T03:21:55;50.67;;;20.67;;
1977;SDS011;989;53.016;8.346;2023-07-29T03:24:21;42.57;;;19.07;;
1977;SDS011;989;53.016;8.346;2023-07-29T03:26:47;44.57;;;19.30;;
1977;SDS011;989;53.016;8.346;2023-07-29T03:29:13;53.20;;;21.77;;
1977;SDS011;989;53.016;8.346;2023-07-29T03:31:39;53.80;;;21.67;;
1977;SDS011;989;53.016;8.346;2023-07-29T03:34:06;54.37;;;20.07;;
1977;SDS011;989;53.016;8.346;2023-07-29T03:36:32;60.57;;;21.10;;
1977;SDS011;989;53.016;8.346;2023-07-29T03:38:58;62.90;;;20.13;;
1977;SDS011;989;53.016;8.346;2023-07-29T03:41:25;41.53;;;19.27;;
1977;SDS011;989;53.016;8.346;2023-07-29T03:43:51;51.30;;;19.30;;
1977;SDS011;989;53.016;8.346;2023-07-29T03:46:17;56.83;;;20.20;;
1977;SDS011;989;53.016;8.346;2023-07-29T03:48:46;55.60;;;21.20;;
1977;SDS011;989;53.016;8.346;2023-07-29T03:51:12;47.20;;;20.00;;
1977;SDS011;989;53.016;8.346;2023-07-29T03:53:38;63.33;;;21.47;;
1977;SDS011;989;53.016;8.346;2023-07-29T03:56:05;45.63;;;19.87;;
1977;SDS011;989;53.016;8.346;2023-07-29T03:58:31;52.73;;;21.27;;
1977;SDS011;989;53.016;8.346;2023-07-29T04:00:57;70.17;;;22.17;;
1977;SDS011;989;53.016;8.346;2023-07-29T04:03:23;61.47;;;20.30;;
1977;SDS011;989;53.016;8.346;2023-07-29T04:05:49;46.83;;;20.73;;
1977;SDS011;989;53.016;8.346;2023-07-29T04:08:15;44.67;;;20.77;;
1977;SDS011;989;53.016;8.346;2023-07-29T04:10:41;56.70;;;19.90;;
1977;SDS011;989;53.016;8.346;2023-07-29T04:13:07;55.90;;;20.60;;
1977;SDS011;989;53.016;8.346;2023-07-29T04:15:33;65.13;;;22.67;;
1977;SDS011;989;53.016;8.346;2023-07-29T04:17:59;49.43;;;21.00;;
1977;SDS011;989;53.016;8.346;2023-07-29T04:20:25;55.73;;;20.00;;
1977;SDS011;989;53.016;8.346;2023-07-29T04:22:51;54.50;;;21.47;;
1977;SDS011;989;53.016;8.346;2023-07-29T04:25:18;47.20;;;21.70;;
1977;SDS011;989;53.016;8.346;2023-07-29T04:27:44;47.83;;;20.03;;
1977;SDS011;989;53.016;8.346;2023-07-29T04:30:10;50.00;;;21.90;;
1977;SDS011;989;53.016;8.346;2023-07-29T04:32:36;57.57;;;22.43;;
1977;SDS011;989;53.016;8.346;2023-07-29T04:35:02;54.90;;;20.87;;
1977;SDS011;989;53.016;8.346;2023-07-29T04:37:29;57.43;;;21.20;;
1977;SDS011;989;53.016;8.346;2023-07-29T04:39:55;58.33;;;20.40;;
1977;SDS011;989;53.016;8.346;2023-07-29T04:42:21;53.80;;;22.13;;
1977;SDS011;989;53.016;8.346;2023-07-29T04:44:47;55.83;;;21.60;;
1977;SDS011;989;53.016;8.346;2023-07-29T04:47:13;50.60;;;20.27;;
1977;SDS011;989;53.016;8.346;2023-07-29T04:49:39;52.87;;;21.30;;
1977;SDS011;989;53.016;8.346;2023-07-29T04:52:05;52.37;;;21.47;;
1977;SDS011;989;53.016;8.346;2023-07-29T04:54:32;51.30;;;20.37;;
1977;SDS011;989;53.016;8.346;2023-07-29T04:56:58;45.17;;;19.57;;
1977;SDS011;989;53.016;8.346;2023-07-29T04:59:24;47.67;;;18.70;;
1977;SDS011;989;53.016;8.346;2023-07-29T05:01:50;43.57;;;18.50;;
1977;SDS011;989;53.016;8.346;2023-07-29T05:04:16;46.30;;;20.40;;
1977;SDS011;989;53.016;8.346;2023-07-29T05:06:42;46.93;;;19.37;;
1977;SDS011;989;53.016;8.346;2023-07-29T05:09:12;45.57;;;19.47;;
1977;SDS011;989;53.016;8.346;2023-07-29T05:11:39;50.17;;;20.70;;
1977;SDS011;989;53.016;8.346;2023-07-29T05:14:05;49.47;;;19.53;;
1977;SDS011;989;53.016;8.346;2023-07-29T05:16:31;49.13;;;19.30;;
1977;SDS011;989;53.016;8.346;2023-07-29T05:18:57;37.40;;;18.57;;
1977;SDS011;989;53.016;8.346;2023-07-29T05:21:23;52.10;;;21.53;;
1977;SDS011;989;53.016;8.346;2023-07-29T05:23:49;42.10;;;19.93;;
1977;SDS011;989;53.016;8.346;2023-07-29T05:26:16;46.10;;;20.43;;
1977;SDS011;989;53.016;8.346;2023-07-29T05:28:42;47.57;;;20.60;;
1977;SDS011;989;53.016;8.346;2023-07-29T05:31:08;51.27;;;20.10;;
1977;SDS011;989;53.016;8.346;2023-07-29T05:33:34;43.30;;;19.97;;
1977;SDS011;989;53.016;8.346;2023-07-29T05:36:01;47.57;;;20.67;;
1977;SDS011;989;53.016;8.346;2023-07-29T05:38:27;47.60;;;21.27;;
1977;SDS011;989;53.016;8.346;2023-07-29T05:40:53;48.40;;;21.27;;
1977;SDS011;989;53.016;8.346;2023-07-29T05:43:19;53.83;;;21.97;;
1977;SDS011;989;53.016;8.346;2023-07-29T05:45:45;46.03;;;21.57;;
1977;SDS011;989;53.016;8.346;2023-07-29T05:48:11;53.40;;;23.30;;
1977;SDS011;989;53.016;8.346;2023-07-29T05:50:37;57.83;;;23.13;;
1977;SDS011;989;53.016;8.346;2023-07-29T05:53:03;43.30;;;21.80;;
1977;SDS011;989;53.016;8.346;2023-07-29T05:55:29;45.30;;;22.23;;
1977;SDS011;989;53.016;8.346;2023-07-29T05:57:55;39.90;;;21.80;;
1977;SDS011;989;53.016;8.346;2023-07-29T06:00:22;57.87;;;22.53;;
1977;SDS011;989;53.016;8.346;2023-07-29T06:02:48;47.87;;;23.03;;
1977;SDS011;989;53.016;8.346;2023-07-29T06:05:14;46.20;;;22.53;;
1977;SDS011;989;53.016;8.346;2023-07-29T06:07:40;46.50;;;24.50;;
1977;SDS011;989;53.016;8.346;2023-07-29T06:10:13;44.73;;;22.47;;
1977;SDS011;989;53.016;8.346;2023-07-29T06:12:44;42.77;;;21.60;;
1977;SDS011;989;53.016;8.346;2023-07-29T06:15:10;43.17;;;22.03;;
1977;SDS011;989;53.016;8.346;2023-07-29T06:17:37;41.43;;;21.93;;
1977;SDS011;989;53.016;8.346;2023-07-29T06:20:03;33.33;;;18.23;;
1977;SDS011;989;53.016;8.346;2023-07-29T06:22:31;32.93;;;19.60;;
1977;SDS011;989;53.016;8.346;2023-07-29T06:24:57;31.40;;;19.27;;
1977;SDS011;989;53.016;8.346;2023-07-29T06:27:23;26.50;;;15.67;;
1977;SDS011;989;53.016;8.346;2023-07-29T06:29:50;22.07;;;14.20;;
1977;SDS011;989;53.016;8.346;2023-07-29T06:32:16;23.23;;;12.40;;
1977;SDS011;989;53.016;8.346;2023-07-29T06:34:42;21.60;;;12.70;;
1977;SDS011;989;53.016;8.346;2023-07-29T06:37:08;16.07;;;10.80;;
1977;SDS011;989;53.016;8.346;2023-07-29T06:39:34;16.63;;;10.90;;
1977;SDS011;989;53.016;8.346;2023-07-29T06:42:00;16.67;;;10.00;;
1977;SDS011;989;53.016;8.346;2023-07-29T06:44:27;15.37;;;9.63;;
1977;SDS011;989;53.016;8.346;2023-07-29T06:46:53;11.80;;;9.10;;
1977;SDS011;989;53.016;8.346;2023-07-29T06:49:19;11.37;;;9.10;;
1977;SDS011;989;53.016;8.346;2023-07-29T06:51:45;16.83;;;9.53;;
1977;SDS011;989;53.016;8.346;2023-07-29T06:54:11;19.43;;;9.53;;
1977;SDS011;989;53.016;8.346;2023-07-29T06:56:37;15.07;;;8.30;;
1977;SDS011;989;53.016;8.346;2023-07-29T06:59:03;11.27;;;8.10;;
1977;SDS011;989;53.016;8.346;2023-07-29T07:01:29;12.53;;;8.93;;
1977;SDS011;989;53.016;8.346;2023-07-29T07:03:55;10.10;;;8.50;;
1977;SDS011;989;53.016;8.346;2023-07-29T07:06:23;10.97;;;7.20;;
1977;SDS011;989;53.016;8.346;2023-07-29T07:08:50;11.57;;;8.27;;
1977;SDS011;989;53.016;8.346;2023-07-29T07:11:16;11.30;;;8.00;;
1977;SDS011;989;53.016;8.346;2023-07-29T07:13:43;13.00;;;8.23;;
1977;SDS011;989;53.016;8.346;2023-07-29T07:16:09;10.50;;;7.70;;
1977;SDS011;989;53.016;8.346;2023-07-29T07:18:35;14.10;;;8.00;;
1977;SDS011;989;53.016;8.346;2023-07-29T07:21:01;7.83;;;6.80;;
1977;SDS011;989;53.016;8.346;2023-07-29T07:23:28;10.07;;;6.67;;
1977;SDS011;989;53.016;8.346;2023-07-29T07:25:54;11.63;;;6.47;;
1977;SDS011;989;53.016;8.346;2023-07-29T07:28:20;10.33;;;6.80;;
1977;SDS011;989;53.016;8.346;2023-07-29T07:30:46;9.50;;;6.00;;
1977;SDS011;989;53.016;8.346;2023-07-29T07:33:12;6.37;;;5.57;;
1977;SDS011;989;53.016;8.346;2023-07-29T07:35:38;9.03;;;5.97;;
1977;SDS011;989;53.016;8.346;2023-07-29T07:38:04;7.87;;;5.53;;
1977;SDS011;989;53.016;8.346;2023-07-29T07:40:33;5.80;;;5.20;;
1977;SDS011;989;53.016;8.346;2023-07-29T07:42:59;10.87;;;6.10;;
1977;SDS011;989;53.016;8.346;2023-07-29T07:45:25;9.20;;;6.20;;
1977;SDS011;989;53.016;8.346;2023-07-29T07:47:51;7.47;;;4.77;;
1977;SDS011;989;53.016;8.346;2023-07-29T07:50:18;7.77;;;6.00;;
1977;SDS011;989;53.016;8.346;2023-07-29T07:52:45;7.07;;;6.40;;
1977;SDS011;989;53.016;8.346;2023-07-29T07:55:11;17.43;;;6.20;;
1977;SDS011;989;53.016;8.346;2023-07-29T07:57:37;7.93;;;6.13;;
1977;SDS011;989;53.016;8.346;2023-07-29T08:00:04;8.60;;;6.07;;
1977;SDS011;989;53.016;8.346;2023-07-29T08:02:31;10.00;;;5.70;;
1977;SDS011;989;53.016;8.346;2023-07-29T08:04:57;10.63;;;5.63;;
1977;SDS011;989;53.016;8.346;2023-07-29T08:07:23;8.10;;;5.50;;
1977;SDS011;989;53.016;8.346;2023-07-29T08:09:49;6.80;;;5.20;;
1977;SDS011;989;53.016;8.346;2023-07-29T08:12:15;6.33;;;5.20;;
1977;SDS011;989;53.016;8.346;2023-07-29T08:14:41;6.70;;;5.50;;
1977;SDS011;989;53.016;8.346;2023-07-29T08:17:07;8.17;;;6.13;;
1977;SDS011;989;53.016;8.346;2023-07-29T08:19:33;12.87;;;5.90;;
1977;SDS011;989;53.016;8.346;2023-07-29T08:22:02;8.43;;;5.80;;
1977;SDS011;989;53.016;8.346;2023-07-29T08:24:28;7.97;;;5.93;;
1977;SDS011;989;53.016;8.346;2023-07-29T08:26:54;12.27;;;6.17;;
1977;SDS011;989;53.016;8.346;2023-07-29T08:29:20;9.83;;;6.20;;
1977;SDS011;989;53.016;8.346;2023-07-29T08:31:46;14.00;;;6.30;;
1977;SDS011;989;53.016;8.346;2023-07-29T08:34:12;9.70;;;6.10;;
1977;SDS011;989;53.016;8.346;2023-07-29T08:36:39;9.87;;;6.67;;
1977;SDS011;989;53.016;8.346;2023-07-29T08:39:05;8.40;;;6.77;;
1977;SDS011;989;53.016;8.346;2023-07-29T08:41:37;7.63;;;6.10;;
1977;SDS011;989;53.016;8.346;2023-07-29T08:44:30;8.93;;;6.80;;
1977;SDS011;989;53.016;8.346;2023-07-29T08:46:55;8.40;;;5.97;;
1977;SDS011;989;53.016;8.346;2023-07-29T08:49:22;8.47;;;7.27;;
1977;SDS011;989;53.016;8.346;2023-07-29T08:51:49;8.63;;;7.00;;
1977;SDS011;989;53.016;8.346;2023-07-29T08:54:16;7.93;;;6.83;;
1977;SDS011;989;53.016;8.346;2023-07-29T08:56:42;20.20;;;6.80;;
1977;SDS011;989;53.016;8.346;2023-07-29T08:59:09;9.43;;;7.00;;
1977;SDS011;989;53.016;8.346;2023-07-29T09:01:36;10.10;;;7.10;;
1977;SDS011;989;53.016;8.346;2023-07-29T09:04:05;9.03;;;7.20;;
1977;SDS011;989;53.016;8.346;2023-07-29T09:06:31;12.63;;;5.97;;
1977;SDS011;989;53.016;8.346;2023-07-29T09:08:58;6.10;;;5.50;;
1977;SDS011;989;53.016;8.346;2023-07-29T09:11:26;6.37;;;5.77;;
1977;SDS011;989;53.016;8.346;2023-07-29T09:13:53;7.60;;;5.67;;
1977;SDS011;989;53.016;8.346;2023-07-29T09:16:22;8.03;;;6.03;;
1977;SDS011;989;53.016;8.346;2023-07-29T09:18:49;9.70;;;6.50;;
1977;SDS011;989;53.016;8.346;2023-07-29T09:21:16;10.80;;;6.90;;
1977;SDS011;989;53.016;8.346;2023-07-29T09:23:44;8.27;;;6.47;;
1977;SDS011;989;53.016;8.346;2023-07-29T09:26:10;7.63;;;6.67;;
1977;SDS011;989;53.016;8.346;2023-07-29T09:28:37;7.13;;;6.43;;
1977;SDS011;989;53.016;8.346;2023-07-29T09:31:04;7.30;;;6.60;;
1977;SDS011;989;53.016;8.346;2023-07-29T09:33:34;7.43;;;6.77;;
1977;SDS011;989;53.016;8.346;2023-07-29T09:36:02;7.30;;;6.67;;
1977;SDS011;989;53.016;8.346;2023-07-29T09:38:33;7.20;;;6.67;;
1977;SDS011;989;53.016;8.346;2023-07-29T09:41:01;6.87;;;6.17;;
1977;SDS011;989;53.016;8.346;2023-07-29T09:43:32;5.93;;;5.07;;
1977;SDS011;989;53.016;8.346;2023-07-29T09:46:03;6.90;;;6.30;;
1977;SDS011;989;53.016;8.346;2023-07-29T09:48:35;6.30;;;5.80;;
1977;SDS011;989;53.016;8.346;2023-07-29T09:51:11;7.53;;;6.67;;
1977;SDS011;989;53.016;8.346;2023-07-29T09:53:45;7.37;;;6.83;;
1977;SDS011;989;53.016;8.346;2023-07-29T09:56:12;6.30;;;5.80;;
1977;SDS011;989;53.016;8.346;2023-07-29T09:58:39;8.30;;;7.73;;
1977;SDS011;989;53.016;8.346;2023-07-29T10:01:06;5.97;;;5.50;;
1977;SDS011;989;53.016;8.346;2023-07-29T10:03:33;5.53;;;5.13;;
1977;SDS011;989;53.016;8.346;2023-07-29T10:06:01;6.13;;;5.47;;
1977;SDS011;989;53.016;8.346;2023-07-29T10:08:32;5.97;;;5.47;;
1977;SDS011;989;53.016;8.346;2023-07-29T10:11:07;8.90;;;8.20;;
1977;SDS011;989;53.016;8.346;2023-07-29T10:13:33;6.67;;;6.07;;
1977;SDS011;989;53.016;8.346;2023-07-29T10:16:00;7.00;;;6.50;;
1977;SDS011;989;53.016;8.346;2023-07-29T10:18:33;7.80;;;7.30;;
1977;SDS011;989;53.016;8.346;2023-07-29T10:21:00;7.37;;;6.87;;
1977;SDS011;989;53.016;8.346;2023-07-29T10:23:27;7.90;;;7.40;;
1977;SDS011;989;53.016;8.346;2023-07-29T10:25:59;8.43;;;6.70;;
1977;SDS011;989;53.016;8.346;2023-07-29T10:28:30;9.27;;;8.57;;
1977;SDS011;989;53.016;8.346;2023-07-29T10:30:57;7.93;;;7.43;;
1977;SDS011;989;53.016;8.346;2023-07-29T10:33:23;9.07;;;8.40;;
1977;SDS011;989;53.016;8.346;2023-07-29T10:35:50;8.27;;;7.67;;
1977;SDS011;989;53.016;8.346;2023-07-29T10:38:18;8.40;;;7.90;;
1977;SDS011;989;53.016;8.346;2023-07-29T10:40:46;7.47;;;7.00;;
1977;SDS011;989;53.016;8.346;2023-07-29T10:43:24;7.50;;;6.73;;
1977;SDS011;989;53.016;8.346;2023-07-29T10:45:51;6.67;;;6.27;;
1977;SDS011;989;53.016;8.346;2023-07-29T10:53:52;6.60;;;6.20;;
1977;SDS011;989;53.016;8.346;2023-07-29T10:56:24;7.10;;;6.60;;
1977;SDS011;989;53.016;8.346;2023-07-29T10:59:43;6.30;;;5.80;;
1977;SDS011;989;53.016;8.346;2023-07-29T11:02:12;7.80;;;6.13;;
1977;SDS011;989;53.016;8.346;2023-07-29T11:04:51;6.90;;;6.30;;
1977;SDS011;989;53.016;8.346;2023-07-29T11:07:18;6.63;;;6.00;;
1977;SDS011;989;53.016;8.346;2023-07-29T11:15:03;8.97;;;8.17;;
1977;SDS011;989;53.016;8.346;2023-07-29T11:17:49;7.63;;;6.87;;
1977;SDS011;989;53.016;8.346;2023-07-29T11:20:17;7.13;;;6.53;;
1977;SDS011;989;53.016;8.346;2023-07-29T11:22:45;7.83;;;7.10;;
1977;SDS011;989;53.016;8.346;2023-07-29T11:25:12;7.73;;;7.07;;
1977;SDS011;989;53.016;8.346;2023-07-29T11:27:39;8.23;;;7.43;;
1977;SDS011;989;53.016;8.346;2023-07-29T11:30:10;10.10;;;9.20;;
1977;SDS011;989;53.016;8.346;2023-07-29T11:32:37;8.30;;;7.70;;
1977;SDS011;989;53.016;8.346;2023-07-29T11:35:05;8.97;;;8.10;;
1977;SDS011;989;53.016;8.346;2023-07-29T11:37:33;8.93;;;8.23;;
1977;SDS011;989;53.016;8.346;2023-07-29T11:39:59;8.03;;;7.43;;
1977;SDS011;989;53.016;8.346;2023-07-29T11:42:26;8.73;;;7.93;;
1977;SDS011;989;53.016;8.346;2023-07-29T11:44:53;9.67;;;9.00;;
1977;SDS011;989;53.016;8.346;2023-07-29T11:47:23;9.57;;;8.87;;
1977;SDS011;989;53.016;8.346;2023-07-29T11:49:49;9.90;;;9.30;;
1977;SDS011;989;53.016;8.346;2023-07-29T11:52:15;9.73;;;9.13;;
1977;SDS011;989;53.016;8.346;2023-07-29T11:54:44;8.93;;;8.30;;
1977;SDS011;989;53.016;8.346;2023-07-29T11:57:11;8.00;;;7.50;;
1977;SDS011;989;53.016;8.346;2023-07-29T11:59:39;9.10;;;8.40;;
1977;SDS011;989;53.016;8.346;2023-07-29T12:02:07;9.30;;;8.70;;
1977;SDS011;989;53.016;8.346;2023-07-29T12:04:38;9.63;;;9.03;;
1977;SDS011;989;53.016;8.346;2023-07-29T12:07:05;10.43;;;8.20;;
1977;SDS011;989;53.016;8.346;2023-07-29T12:09:32;9.47;;;8.80;;
1977;SDS011;989;53.016;8.346;2023-07-29T12:12:00;10.03;;;8.93;;
1977;SDS011;989;53.016;8.346;2023-07-29T12:14:29;8.27;;;7.77;;
1977;SDS011;989;53.016;8.346;2023-07-29T12:16:55;10.57;;;9.87;;
1977;SDS011;989;53.016;8.346;2023-07-29T12:19:21;13.17;;;10.80;;
1977;SDS011;989;53.016;8.346;2023-07-29T12:21:48;11.20;;;10.50;;
1977;SDS011;989;53.016;8.346;2023-07-29T12:24:14;8.97;;;8.27;;
1977;SDS011;989;53.016;8.346;2023-07-29T12:26:40;10.83;;;10.10;;
1977;SDS011;989;53.016;8.346;2023-07-29T12:29:25;10.97;;;10.17;;
1977;SDS011;989;53.016;8.346;2023-07-29T12:34:28;9.97;;;9.33;;
1977;SDS011;989;53.016;8.346;2023-07-29T12:36:55;9.47;;;8.87;;
1977;SDS011;989;53.016;8.346;2023-07-29T12:39:23;10.17;;;9.57;;
1977;SDS011;989;53.016;8.346;2023-07-29T12:41:52;8.83;;;7.83;;
1977;SDS011;989;53.016;8.346;2023-07-29T12:44:19;12.93;;;9.93;;
1977;SDS011;989;53.016;8.346;2023-07-29T12:46:46;10.40;;;9.70;;
1977;SDS011;989;53.016;8.346;2023-07-29T12:49:12;11.27;;;10.47;;
1977;SDS011;989;53.016;8.346;2023-07-29T12:51:38;11.27;;;10.57;;
1977;SDS011;989;53.016;8.346;2023-07-29T12:54:04;11.00;;;10.13;;
1977;SDS011;989;53.016;8.346;2023-07-29T12:56:31;11.90;;;11.20;;
1977;SDS011;989;53.016;8.346;2023-07-29T12:58:58;10.70;;;10.10;;
1977;SDS011;989;53.016;8.346;2023-07-29T13:01:24;14.53;;;8.97;;
1977;SDS011;989;53.016;8.346;2023-07-29T13:03:51;10.67;;;9.53;;
1977;SDS011;989;53.016;8.346;2023-07-29T13:06:17;10.63;;;9.80;;
1977;SDS011;989;53.016;8.346;2023-07-29T13:08:44;9.80;;;8.90;;
1977;SDS011;989;53.016;8.346;2023-07-29T13:11:10;12.80;;;9.30;;
1977;SDS011;989;53.016;8.346;2023-07-29T13:13:36;10.93;;;10.03;;
1977;SDS011;989;53.016;8.346;2023-07-29T13:16:02;9.37;;;8.77;;
1977;SDS011;989;53.016;8.346;2023-07-29T13:18:29;11.90;;;9.30;;
1977;SDS011;989;53.016;8.346;2023-07-29T13:20:55;10.07;;;9.47;;
1977;SDS011;989;53.016;8.346;2023-07-29T13:23:22;9.67;;;9.00;;
1977;SDS011;989;53.016;8.346;2023-07-29T13:25:48;9.13;;;8.40;;
1977;SDS011;989;53.016;8.346;2023-07-29T13:28:15;9.83;;;9.13;;
1977;SDS011;989;53.016;8.346;2023-07-29T13:30:41;11.40;;;9.80;;
1977;SDS011;989;53.016;8.346;2023-07-29T13:33:08;9.63;;;9.03;;
1977;SDS011;989;53.016;8.346;2023-07-29T13:35:34;10.00;;;9.30;;
1977;SDS011;989;53.016;8.346;2023-07-29T13:38:01;11.50;;;10.80;;
1977;SDS011;989;53.016;8.346;2023-07-29T13:40:27;9.27;;;8.50;;
1977;SDS011;989;53.016;8.346;2023-07-29T13:42:54;10.20;;;9.50;;
1977;SDS011;989;53.016;8.346;2023-07-29T13:45:20;11.20;;;10.50;;
1977;SDS011;989;53.016;8.346;2023-07-29T13:47:47;11.43;;;10.73;;
1977;SDS011;989;53.016;8.346;2023-07-29T13:50:13;12.90;;;12.10;;
1977;SDS011;989;53.016;8.346;2023-07-29T13:52:40;9.73;;;9.20;;
1977;SDS011;989;53.016;8.346;2023-07-29T13:55:06;11.00;;;10.30;;
1977;SDS011;989;53.016;8.346;2023-07-29T13:57:32;11.73;;;10.97;;
1977;SDS011;989;53.016;8.346;2023-07-29T13:59:58;14.87;;;13.80;;
1977;SDS011;989;53.016;8.346;2023-07-29T14:02:24;11.60;;;10.63;;
1977;SDS011;989;53.016;8.346;2023-07-29T14:04:56;10.57;;;9.87;;
1977;SDS011;989;53.016;8.346;2023-07-29T14:07:22;9.63;;;9.03;;
1977;SDS011;989;53.016;8.346;2023-07-29T14:09:48;11.37;;;10.40;;
1977;SDS011;989;53.016;8.346;2023-07-29T14:12:14;10.87;;;10.10;;
1977;SDS011;989;53.016;8.346;2023-07-29T14:14:41;10.00;;;9.40;;
1977;SDS011;989;53.016;8.346;2023-07-29T14:17:07;10.40;;;9.63;;
1977;SDS011;989;53.016;8.346;2023-07-29T14:19:34;9.97;;;9.30;;
1977;SDS011;989;53.016;8.346;2023-07-29T14:22:02;9.90;;;9.10;;
1977;SDS011;989;53.016;8.346;2023-07-29T14:24:28;9.90;;;9.20;;
1977;SDS011;989;53.016;8.346;2023-07-29T14:26:54;11.50;;;10.70;;
1977;SDS011;989;53.016;8.346;2023-07-29T14:29:20;9.80;;;8.83;;
1977;SDS011;989;53.016;8.346;2023-07-29T14:31:46;8.90;;;7.90;;
1977;SDS011;989;53.016;8.346;2023-07-29T14:34:12;8.77;;;8.27;;
1977;SDS011;989;53.016;8.346;2023-07-29T14:36:38;8.50;;;7.90;;
1977;SDS011;989;53.016;8.346;2023-07-29T14:39:04;8.33;;;7.53;;
1977;SDS011;989;53.016;8.346;2023-07-29T14:41:30;7.13;;;6.53;;
1977;SDS011;989;53.016;8.346;2023-07-29T14:43:56;6.90;;;6.40;;
1977;SDS011;989;53.016;8.346;2023-07-29T14:46:23;6.47;;;5.10;;
1977;SDS011;989;53.016;8.346;2023-07-29T14:48:49;9.67;;;8.87;;
1977;SDS011;989;53.016;8.346;2023-07-29T14:51:15;8.83;;;7.10;;
1977;SDS011;989;53.016;8.346;2023-07-29T14:53:41;12.77;;;11.97;;
1977;SDS011;989;53.016;8.346;2023-07-29T14:56:08;9.60;;;8.70;;
1977;SDS011;989;53.016;8.346;2023-07-29T14:58:34;5.80;;;5.20;;
1977;SDS011;989;53.016;8.346;2023-07-29T15:01:00;7.93;;;6.90;;
1977;SDS011;989;53.016;8.346;2023-07-29T15:03:26;14.63;;;6.97;;
1977;SDS011;989;53.016;8.346;2023-07-29T15:05:52;7.43;;;6.63;;
1977;SDS011;989;53.016;8.346;2023-07-29T15:08:18;8.10;;;7.40;;
1977;SDS011;989;53.016;8.346;2023-07-29T15:10:45;7.70;;;7.03;;
1977;SDS011;989;53.016;8.346;2023-07-29T15:13:11;11.90;;;9.00;;
1977;SDS011;989;53.016;8.346;2023-07-29T15:15:41;8.03;;;7.10;;
1977;SDS011;989;53.016;8.346;2023-07-29T15:18:08;6.80;;;6.10;;
1977;SDS011;989;53.016;8.346;2023-07-29T15:20:35;10.17;;;6.13;;
1977;SDS011;989;53.016;8.346;2023-07-29T15:23:01;8.50;;;6.83;;
1977;SDS011;989;53.016;8.346;2023-07-29T15:25:27;6.60;;;6.00;;
1977;SDS011;989;53.016;8.346;2023-07-29T15:27:53;8.30;;;6.80;;
1977;SDS011;989;53.016;8.346;2023-07-29T15:30:19;7.73;;;7.03;;